Time;durP1;ratioP1;P1;durP2;ratioP2;P2;SDS_P1;SDS_P2;PMS_P1;PMS_P2;Temp;Humidity;BMP_temperature;BMP_pressure;BME280_temperature;BME280_humidity;BME280_pressure;Samples;Min_cycle;Max_cycle;Signal;HPM_P1;HPM_P2
2023/08/01 00:00:11;;;;;;;2.60;2.50;;;17.40;99.90;;;;;;5050319;28;20178;-75
2023/08/01 00:02:38;;;;;;;2.60;2.50;;;17.40;99.90;;;;;;5044989;28;20243;-75
2023/08/01 00:05:04;;;;;;;2.80;2.60;;;17.50;99.90;;;;;;5031984;28;20191;-75
2023/08/01 00:07:30;;;;;;;3.63;2.80;;;17.50;99.90;;;;;;5031880;28;20176;-75
2023/08/01 00:09:56;;;;;;;2.60;2.43;;;17.50;99.90;;;;;;5031811;28;20203;-76
2023/08/01 00:12:21;;;;;;;2.70;2.60;;;17.50;99.90;;;;;;5031784;28;20283;-76
2023/08/01 00:14:47;;;;;;;2.83;2.63;;;17.50;99.90;;;;;;5032479;28;20207;-75
2023/08/01 00:17:13;;;;;;;2.87;2.67;;;17.50;99.90;;;;;;5051999;28;20666;-74
2023/08/01 00:19:38;;;;;;;3.10;2.87;;;17.50;99.90;;;;;;5051798;28;20175;-74
2023/08/01 00:22:04;;;;;;;2.73;2.60;;;17.50;99.90;;;;;;5052415;28;20245;-77
2023/08/01 00:24:30;;;;;;;2.90;2.70;;;17.50;99.90;;;;;;5057650;28;20174;-74
2023/08/01 00:26:55;;;;;;;3.27;2.50;;;17.40;99.90;;;;;;5065218;28;20182;-78
2023/08/01 00:29:22;;;;;;;3.03;2.73;;;17.50;99.90;;;;;;5046405;28;20719;-75
2023/08/01 00:31:47;;;;;;;3.13;2.93;;;17.40;99.90;;;;;;5032967;28;20226;-75
2023/08/01 00:34:13;;;;;;;3.30;2.70;;;17.40;99.90;;;;;;5030817;28;20179;-75
2023/08/01 00:36:39;;;;;;;3.20;2.90;;;17.40;99.90;;;;;;5032027;28;20182;-74
2023/08/01 00:39:04;;;;;;;3.20;3.00;;;17.40;99.90;;;;;;5039437;28;20221;-75
2023/08/01 00:41:30;;;;;;;5.23;3.00;;;17.40;99.90;;;;;;5051664;28;20195;-76
2023/08/01 00:43:55;;;;;;;3.30;3.00;;;17.40;99.90;;;;;;5054066;28;20178;-75
2023/08/01 00:46:21;;;;;;;3.23;2.97;;;17.40;99.90;;;;;;5050497;28;20175;-75
2023/08/01 00:48:47;;;;;;;3.23;3.03;;;17.50;99.90;;;;;;5051347;28;20211;-75
2023/08/01 00:51:13;;;;;;;2.83;2.73;;;17.50;99.90;;;;;;5052707;28;20167;-75
2023/08/01 00:53:39;;;;;;;3.03;2.83;;;17.50;99.90;;;;;;5042120;28;20731;-75
2023/08/01 00:56:05;;;;;;;3.00;2.80;;;17.50;99.90;;;;;;5030246;28;20215;-75
2023/08/01 00:58:31;;;;;;;2.80;2.70;;;17.50;99.90;;;;;;5037757;28;20175;-75
2023/08/01 01:00:57;;;;;;;3.43;2.53;;;17.50;99.90;;;;;;5051465;28;20236;-75
2023/08/01 01:03:23;;;;;;;2.90;2.50;;;17.50;99.90;;;;;;5051236;28;20684;-74
2023/08/01 01:06:07;;;;;;;2.90;2.70;;;17.50;99.90;;;;;;5052735;28;20637;-74
2023/08/01 01:08:33;;;;;;;3.83;2.60;;;17.50;99.90;;;;;;5050757;28;20705;-74
2023/08/01 01:10:58;;;;;;;6.00;2.80;;;17.50;99.90;;;;;;5039606;28;20187;-73
2023/08/01 01:13:24;;;;;;;2.53;2.43;;;17.50;99.90;;;;;;5030612;28;20230;-74
2023/08/01 01:15:49;;;;;;;2.77;2.57;;;17.40;99.90;;;;;;5034384;28;20178;-73
2023/08/01 01:18:15;;;;;;;2.50;2.40;;;17.40;99.90;;;;;;5034439;28;20175;-72
2023/08/01 01:20:41;;;;;;;4.13;2.67;;;17.30;99.90;;;;;;5033373;28;20175;-71
2023/08/01 01:23:09;;;;;;;2.90;2.70;;;17.30;99.90;;;;;;5035107;28;20203;-71
2023/08/01 01:25:36;;;;;;;2.87;2.60;;;17.20;99.90;;;;;;5034337;28;20172;-71
2023/08/01 01:28:04;;;;;;;2.90;2.70;;;17.20;99.90;;;;;;5034246;28;20171;-71
2023/08/01 01:30:33;;;;;;;2.67;2.57;;;17.20;99.90;;;;;;5033137;28;20207;-72
2023/08/01 01:33:00;;;;;;;3.23;3.00;;;17.10;99.90;;;;;;5034065;28;20187;-72
2023/08/01 01:35:25;;;;;;;3.17;2.97;;;17.10;99.90;;;;;;5036453;28;20251;-72
2023/08/01 01:37:51;;;;;;;3.10;2.90;;;17.00;99.90;;;;;;5054007;28;20235;-72
2023/08/01 01:40:16;;;;;;;3.00;2.87;;;17.00;99.90;;;;;;5053879;28;20171;-72
2023/08/01 01:42:42;;;;;;;3.97;2.70;;;17.00;99.90;;;;;;5053514;28;20667;-71
2023/08/01 01:45:08;;;;;;;2.60;2.40;;;16.90;99.90;;;;;;5054291;28;20250;-71
2023/08/01 01:47:34;;;;;;;2.93;2.80;;;16.90;99.90;;;;;;5053942;28;20198;-72
2023/08/01 01:49:59;;;;;;;2.80;2.60;;;16.90;99.90;;;;;;5046799;28;20669;-72
2023/08/01 01:52:25;;;;;;;2.40;2.30;;;16.90;99.90;;;;;;5032340;28;20200;-72
2023/08/01 01:54:50;;;;;;;2.50;2.40;;;17.00;99.90;;;;;;5033665;28;20555;-72
2023/08/01 01:57:16;;;;;;;2.40;2.30;;;16.90;99.90;;;;;;5033876;28;20171;-72
2023/08/01 01:59:41;;;;;;;2.60;2.50;;;17.00;99.90;;;;;;5033879;28;20318;-71
2023/08/01 02:02:07;;;;;;;2.70;2.60;;;17.00;99.90;;;;;;5119684;23;20222;-71
2023/08/01 02:04:33;;;;;;;4.23;2.50;;;17.00;99.90;;;;;;5013048;28;20180;-71
2023/08/01 02:06:58;;;;;;;2.90;2.70;;;17.00;99.90;;;;;;5014071;28;20191;-71
2023/08/01 02:09:24;;;;;;;2.80;2.60;;;16.90;99.90;;;;;;5011888;28;20212;-71
2023/08/01 02:11:50;;;;;;;4.13;2.93;;;16.90;99.90;;;;;;5013560;28;20686;-71
2023/08/01 02:14:15;;;;;;;3.20;2.90;;;16.90;99.90;;;;;;5013773;28;20176;-71
2023/08/01 02:16:41;;;;;;;3.17;2.97;;;16.80;99.90;;;;;;5013532;28;20196;-71
2023/08/01 02:19:07;;;;;;;3.13;2.93;;;16.80;99.90;;;;;;5013414;28;20188;-71
2023/08/01 02:21:32;;;;;;;3.70;3.23;;;16.80;99.90;;;;;;5012029;28;20176;-71
2023/08/01 02:23:58;;;;;;;3.30;3.00;;;16.80;99.90;;;;;;5012556;28;20204;-72
2023/08/01 02:26:24;;;;;;;3.50;3.30;;;16.70;99.90;;;;;;5013033;28;20176;-71
2023/08/01 02:28:50;;;;;;;3.57;3.27;;;16.70;99.90;;;;;;5011103;28;20371;-71
2023/08/01 02:31:16;;;;;;;3.37;3.17;;;16.70;99.90;;;;;;5011752;28;20172;-71
2023/08/01 02:33:42;;;;;;;4.17;3.10;;;16.60;99.90;;;;;;5013477;28;20665;-71
2023/08/01 02:36:07;;;;;;;3.90;3.50;;;16.60;99.90;;;;;;5013426;28;20168;-71
2023/08/01 02:38:33;;;;;;;3.60;3.40;;;16.60;99.90;;;;;;5012089;28;20176;-71
2023/08/01 02:40:58;;;;;;;4.13;2.97;;;16.60;99.90;;;;;;5013409;28;20212;-71
2023/08/01 02:43:24;;;;;;;4.13;3.50;;;16.70;99.90;;;;;;5011583;28;20207;-70
2023/08/01 02:45:50;;;;;;;3.40;3.10;;;16.60;99.90;;;;;;5012602;28;20180;-71
2023/08/01 02:48:16;;;;;;;3.30;3.10;;;16.60;99.90;;;;;;5013122;28;20207;-70
2023/08/01 02:50:42;;;;;;;3.87;3.60;;;16.60;99.90;;;;;;5011636;28;20227;-71
2023/08/01 02:53:07;;;;;;;4.40;3.80;;;16.60;99.90;;;;;;5012645;28;20613;-71
2023/08/01 02:55:33;;;;;;;4.30;4.00;;;16.50;99.90;;;;;;5012474;28;20207;-71
2023/08/01 02:57:58;;;;;;;4.37;3.83;;;16.50;99.90;;;;;;5012842;28;20630;-71
2023/08/01 03:00:25;;;;;;;4.80;4.30;;;16.50;99.90;;;;;;5011157;28;20215;-72
2023/08/01 03:02:51;;;;;;;4.60;4.20;;;16.50;99.90;;;;;;5010978;28;20732;-70
2023/08/01 03:05:16;;;;;;;5.27;4.77;;;16.50;99.90;;;;;;5012929;28;20281;-71
2023/08/01 03:07:42;;;;;;;6.23;4.87;;;16.50;99.90;;;;;;5012785;28;20172;-70
2023/08/01 03:10:09;;;;;;;6.03;5.43;;;16.40;99.90;;;;;;5012541;28;20204;-71
2023/08/01 03:12:34;;;;;;;5.80;5.30;;;16.40;99.90;;;;;;5010885;28;20695;-70
2023/08/01 03:15:00;;;;;;;5.97;5.47;;;16.40;99.90;;;;;;5012698;28;20204;-70
2023/08/01 03:17:26;;;;;;;6.87;6.17;;;16.30;99.90;;;;;;5012698;28;20179;-71
2023/08/01 03:19:52;;;;;;;8.10;7.30;;;16.30;99.90;;;;;;5012656;28;20175;-72
2023/08/01 03:22:18;;;;;;;8.10;6.80;;;16.30;99.90;;;;;;5012327;28;20220;-71
2023/08/01 03:24:43;;;;;;;13.83;7.33;;;16.20;99.90;;;;;;5012452;28;20204;-71
2023/08/01 03:27:09;;;;;;;8.60;7.50;;;16.20;99.90;;;;;;5011128;28;20180;-72
2023/08/01 03:29:34;;;;;;;11.43;7.70;;;16.10;99.90;;;;;;5010817;28;20234;-71
2023/08/01 03:32:00;;;;;;;9.83;7.70;;;16.10;99.90;;;;;;5012165;28;20262;-71
2023/08/01 03:34:26;;;;;;;8.73;7.57;;;16.10;99.90;;;;;;5011098;28;20544;-71
2023/08/01 03:36:52;;;;;;;10.27;8.47;;;16.00;99.90;;;;;;5010522;28;20191;-71
2023/08/01 03:39:18;;;;;;;11.60;8.70;;;15.90;99.90;;;;;;5011825;28;20176;-70
2023/08/01 03:41:43;;;;;;;11.37;8.77;;;15.90;99.90;;;;;;5011563;28;20176;-72
2023/08/01 03:44:09;;;;;;;12.17;10.20;;;15.80;99.90;;;;;;5012010;28;20721;-70
2023/08/01 03:46:34;;;;;;;12.10;8.77;;;15.80;99.90;;;;;;5011746;28;20582;-71
2023/08/01 03:49:00;;;;;;;13.17;9.57;;;15.80;99.90;;;;;;5012234;28;20204;-71
2023/08/01 03:51:26;;;;;;;16.03;10.13;;;15.80;99.90;;;;;;5011728;28;20642;-72
2023/08/01 03:53:51;;;;;;;12.47;11.07;;;15.70;99.90;;;;;;5010474;28;20285;-71
2023/08/01 03:56:17;;;;;;;15.03;11.23;;;15.70;99.90;;;;;;5010333;28;20679;-71
2023/08/01 03:58:42;;;;;;;13.80;10.73;;;15.60;99.90;;;;;;5011795;28;20180;-71
2023/08/01 04:01:08;;;;;;;18.20;11.27;;;15.60;99.90;;;;;;5010758;28;20176;-71
2023/08/01 04:03:33;;;;;;;20.87;11.83;;;15.50;99.90;;;;;;5011505;28;20235;-71
2023/08/01 04:05:59;;;;;;;19.20;11.53;;;15.50;99.90;;;;;;5010928;28;20176;-71
2023/08/01 04:08:25;;;;;;;15.37;11.10;;;15.40;99.90;;;;;;5011272;28;20178;-71
2023/08/01 04:10:50;;;;;;;18.30;11.00;;;15.40;99.90;;;;;;5011874;28;20231;-72
2023/08/01 04:13:16;;;;;;;14.77;10.23;;;15.50;99.90;;;;;;5011761;28;20184;-71
2023/08/01 04:15:42;;;;;;;14.87;10.60;;;15.50;99.90;;;;;;5011808;28;20573;-72
2023/08/01 04:18:07;;;;;;;13.37;10.33;;;15.50;99.90;;;;;;5010777;28;20188;-71
2023/08/01 04:20:33;;;;;;;12.60;10.03;;;15.40;99.90;;;;;;5011746;28;20175;-72
2023/08/01 04:22:58;;;;;;;13.73;9.03;;;15.50;99.90;;;;;;5011319;28;20199;-72
2023/08/01 04:25:26;;;;;;;16.37;10.50;;;15.50;99.90;;;;;;5010428;28;20276;-71
2023/08/01 04:27:52;;;;;;;13.73;9.33;;;15.50;99.90;;;;;;5011875;28;20234;-71
2023/08/01 04:30:18;;;;;;;13.93;9.40;;;15.50;99.90;;;;;;5011680;28;20677;-72
2023/08/01 04:32:43;;;;;;;12.27;9.43;;;15.60;99.90;;;;;;5009446;28;20203;-71
2023/08/01 04:35:09;;;;;;;11.00;7.90;;;15.60;99.90;;;;;;5011467;28;20262;-72
2023/08/01 04:37:35;;;;;;;12.63;8.77;;;15.60;99.90;;;;;;5011552;28;20218;-71
2023/08/01 04:40:00;;;;;;;9.93;8.20;;;15.60;99.90;;;;;;5011709;28;20176;-71
2023/08/01 04:42:26;;;;;;;15.83;9.63;;;15.60;99.90;;;;;;5009898;28;20195;-70
2023/08/01 04:44:52;;;;;;;16.27;9.63;;;15.60;99.90;;;;;;5011497;28;20172;-71
2023/08/01 04:47:19;;;;;;;15.63;9.63;;;15.60;99.90;;;;;;5011287;28;20668;-71
2023/08/01 04:49:44;;;;;;;15.30;9.20;;;15.60;99.90;;;;;;5014027;28;20249;-70
2023/08/01 04:52:10;;;;;;;13.33;9.87;;;15.60;99.90;;;;;;5014723;28;20581;-70
2023/08/01 04:54:35;;;;;;;14.60;9.13;;;15.50;99.90;;;;;;5013587;28;20173;-71
2023/08/01 04:57:01;;;;;;;16.30;9.67;;;15.50;99.90;;;;;;5015254;28;20538;-71
2023/08/01 04:59:27;;;;;;;17.73;9.50;;;15.50;99.90;;;;;;5013848;28;20177;-70
2023/08/01 05:01:53;;;;;;;16.67;9.17;;;15.50;99.90;;;;;;5013282;28;20626;-70
2023/08/01 05:04:18;;;;;;;13.90;9.73;;;15.50;99.90;;;;;;5013748;28;20188;-73
2023/08/01 05:06:44;;;;;;;13.27;9.23;;;15.60;99.90;;;;;;5013773;28;20175;-71
2023/08/01 05:09:09;;;;;;;18.30;10.30;;;15.60;99.90;;;;;;5014041;28;20228;-71
2023/08/01 05:11:35;;;;;;;14.40;9.43;;;15.60;99.90;;;;;;5014813;28;20262;-71
2023/08/01 05:14:01;;;;;;;12.00;9.30;;;15.50;99.90;;;;;;5013751;28;20168;-71
2023/08/01 05:16:26;;;;;;;20.57;10.70;;;15.50;99.90;;;;;;5014689;28;20171;-72
2023/08/01 05:18:52;;;;;;;13.13;9.90;;;15.40;99.90;;;;;;5014508;28;20188;-72
2023/08/01 05:21:17;;;;;;;12.87;9.03;;;15.40;99.90;;;;;;5013507;28;20195;-71
2023/08/01 05:23:43;;;;;;;12.20;8.63;;;15.40;99.90;;;;;;5014387;28;20191;-71
2023/08/01 05:26:09;;;;;;;13.77;9.13;;;15.40;99.90;;;;;;5014633;28;20642;-71
2023/08/01 05:28:34;;;;;;;15.30;8.70;;;15.40;99.90;;;;;;5014129;28;20176;-71
2023/08/01 05:31:00;;;;;;;12.43;8.37;;;15.40;99.90;;;;;;5014473;28;20554;-71
2023/08/01 05:33:25;;;;;;;13.13;9.67;;;15.50;99.90;;;;;;5012917;28;20200;-71
2023/08/01 05:35:51;;;;;;;15.87;9.27;;;15.50;99.90;;;;;;5012645;28;20211;-71
2023/08/01 05:38:16;;;;;;;12.87;8.27;;;15.50;99.90;;;;;;5014338;28;20172;-72
2023/08/01 05:40:42;;;;;;;11.53;8.60;;;15.60;99.90;;;;;;5012820;28;20188;-71
2023/08/01 05:43:08;;;;;;;15.20;8.20;;;15.60;99.90;;;;;;5013978;28;20219;-71
2023/08/01 05:45:35;;;;;;;13.33;8.77;;;15.60;99.90;;;;;;5014692;28;20667;-71
2023/08/01 05:48:01;;;;;;;15.20;8.20;;;15.70;99.90;;;;;;5013870;28;20180;-71
2023/08/01 05:50:27;;;;;;;19.00;8.53;;;15.70;99.90;;;;;;5013980;28;20258;-71
2023/08/01 05:52:53;;;;;;;11.70;7.63;;;15.80;99.90;;;;;;5012741;28;20192;-71
2023/08/01 05:55:18;;;;;;;15.83;8.73;;;15.80;99.90;;;;;;5014589;28;20234;-71
2023/08/01 05:57:44;;;;;;;16.33;8.37;;;15.80;99.90;;;;;;5014323;28;20196;-71
2023/08/01 06:00:10;;;;;;;10.07;8.07;;;16.00;99.90;;;;;;5013308;28;20645;-71
2023/08/01 06:02:36;;;;;;;10.40;7.53;;;16.00;99.90;;;;;;5013038;28;20215;-71
2023/08/01 06:05:02;;;;;;;12.50;7.57;;;16.10;99.90;;;;;;5013962;28;20176;-72
2023/08/01 06:07:27;;;;;;;11.80;7.93;;;16.20;99.90;;;;;;5013818;28;20204;-71
2023/08/01 06:09:53;;;;;;;12.17;7.80;;;16.20;99.90;;;;;;5012362;28;20678;-71
2023/08/01 06:12:19;;;;;;;11.57;6.87;;;16.30;99.90;;;;;;5012389;28;20207;-72
2023/08/01 06:14:45;;;;;;;8.80;7.17;;;16.40;99.90;;;;;;5012295;28;20176;-71
2023/08/01 06:17:11;;;;;;;9.40;6.67;;;16.40;99.90;;;;;;5012426;28;20190;-70
2023/08/01 06:19:37;;;;;;;9.67;7.63;;;16.40;99.90;;;;;;5014254;28;20172;-73
2023/08/01 06:22:02;;;;;;;9.27;6.80;;;16.50;99.90;;;;;;5013582;28;20192;-71
2023/08/01 06:24:28;;;;;;;10.67;6.47;;;16.50;99.90;;;;;;5012130;28;20565;-70
2023/08/01 06:26:54;;;;;;;6.87;5.30;;;16.60;99.90;;;;;;5013109;28;20186;-71
2023/08/01 06:29:19;;;;;;;8.60;5.77;;;16.70;99.90;;;;;;5012234;28;20196;-71
2023/08/01 06:31:45;;;;;;;8.23;7.20;;;16.80;99.90;;;;;;5013209;28;20559;-71
2023/08/01 06:34:11;;;;;;;8.97;6.13;;;17.10;99.90;;;;;;5012957;28;20164;-71
2023/08/01 06:36:36;;;;;;;5.23;4.80;;;17.40;99.90;;;;;;5012944;28;20191;-72
2023/08/01 06:39:03;;;;;;;9.07;5.93;;;17.40;99.90;;;;;;5012089;28;20568;-71
2023/08/01 06:41:28;;;;;;;6.23;5.20;;;17.40;99.90;;;;;;5013027;28;20212;-72
2023/08/01 06:43:54;;;;;;;10.20;5.47;;;17.50;99.90;;;;;;5012830;28;20656;-71
2023/08/01 06:46:20;;;;;;;15.63;5.77;;;17.50;99.90;;;;;;5011150;28;20210;-72
2023/08/01 06:48:45;;;;;;;5.63;5.10;;;17.70;99.90;;;;;;5011868;28;20278;-71
2023/08/01 06:51:11;;;;;;;7.67;5.03;;;17.70;99.90;;;;;;5013312;28;20175;-71
2023/08/01 06:53:36;;;;;;;9.80;5.33;;;17.60;99.90;;;;;;5011510;28;20192;-71
2023/08/01 06:56:02;;;;;;;7.57;5.10;;;17.50;99.90;;;;;;5013170;28;20508;-70
2023/08/01 06:58:28;;;;;;;8.37;5.90;;;17.40;99.90;;;;;;5011639;28;20234;-71
2023/08/01 07:00:53;;;;;;;6.97;5.40;;;17.40;99.90;;;;;;5010690;28;20184;-70
2023/08/01 07:03:19;;;;;;;7.47;5.93;;;17.30;99.90;;;;;;5012191;28;20250;-71
2023/08/01 07:05:44;;;;;;;10.90;5.83;;;17.30;99.90;;;;;;5011418;28;20188;-71
2023/08/01 07:08:10;;;;;;;7.77;5.73;;;17.40;99.90;;;;;;5012605;28;20642;-70
2023/08/01 07:10:36;;;;;;;8.30;5.10;;;17.50;99.90;;;;;;5011167;28;20208;-71
2023/08/01 07:13:04;;;;;;;11.43;4.93;;;17.80;99.90;;;;;;5010816;28;20200;-70
2023/08/01 07:15:30;;;;;;;8.70;5.43;;;17.90;99.90;;;;;;5011987;28;20173;-71
2023/08/01 07:17:56;;;;;;;9.90;5.40;;;18.20;99.90;;;;;;5011245;28;20586;-71
2023/08/01 07:20:22;;;;;;;8.00;4.90;;;18.30;99.90;;;;;;5012272;28;20259;-71
2023/08/01 07:22:47;;;;;;;6.50;4.63;;;18.40;99.90;;;;;;5010769;28;20203;-71
2023/08/01 07:25:13;;;;;;;8.83;4.73;;;18.60;99.90;;;;;;5012661;28;20585;-71
2023/08/01 07:27:38;;;;;;;8.90;5.03;;;18.70;99.90;;;;;;5011167;28;20180;-70
2023/08/01 07:30:05;;;;;;;4.70;4.17;;;18.90;99.90;;;;;;5011302;28;20204;-72
2023/08/01 07:32:31;;;;;;;8.13;4.80;;;19.30;99.90;;;;;;5011497;28;20718;-71
2023/08/01 07:34:57;;;;;;;8.13;5.47;;;19.50;99.90;;;;;;5012440;28;20182;-71
2023/08/01 07:37:22;;;;;;;10.03;4.83;;;19.90;99.90;;;;;;5011003;28;20176;-70
2023/08/01 07:39:50;;;;;;;8.13;5.13;;;19.90;99.90;;;;;;5012144;28;20218;-70
2023/08/01 07:42:15;;;;;;;12.50;5.00;;;19.90;99.90;;;;;;5010728;28;20243;-70
2023/08/01 07:44:41;;;;;;;6.83;5.03;;;19.80;99.90;;;;;;5011912;28;20184;-70
2023/08/01 07:47:06;;;;;;;6.37;3.90;;;19.90;99.90;;;;;;5012153;28;20169;-71
2023/08/01 07:49:33;;;;;;;13.00;4.67;;;19.80;99.90;;;;;;5010704;28;20203;-71
2023/08/01 07:51:59;;;;;;;11.53;5.13;;;19.70;99.90;;;;;;5010472;28;20200;-70
2023/08/01 07:54:24;;;;;;;7.33;4.33;;;19.60;99.90;;;;;;5012125;28;20175;-69
2023/08/01 07:56:50;;;;;;;6.33;4.17;;;19.40;99.90;;;;;;5012080;28;20210;-71
2023/08/01 07:59:16;;;;;;;6.23;4.83;;;19.20;99.90;;;;;;5010671;28;20182;-70
2023/08/01 08:01:41;;;;;;;5.90;4.03;;;19.30;99.90;;;;;;5010272;28;20259;-70
2023/08/01 08:04:07;;;;;;;8.27;4.87;;;19.30;99.90;;;;;;5037214;23;20219;-70
2023/08/01 08:06:33;;;;;;;6.33;4.40;;;19.60;99.90;;;;;;5031430;28;20302;-71
2023/08/01 08:08:58;;;;;;;4.93;4.13;;;19.80;99.90;;;;;;5030172;28;20195;-70
2023/08/01 08:11:24;;;;;;;5.10;3.87;;;20.00;99.90;;;;;;5063518;28;20237;-71
2023/08/01 08:13:50;;;;;;;5.20;4.10;;;20.30;99.90;;;;;;5063325;28;20199;-71
2023/08/01 08:16:15;;;;;;;5.10;4.10;;;20.50;99.90;;;;;;5031635;28;20663;-71
2023/08/01 08:18:41;;;;;;;10.60;4.30;;;20.40;99.90;;;;;;5031164;28;20538;-72
2023/08/01 08:21:07;;;;;;;5.53;5.03;;;20.10;99.90;;;;;;5031525;28;20182;-72
2023/08/01 08:23:33;;;;;;;8.03;4.60;;;19.60;99.90;;;;;;5031892;28;20563;-71
2023/08/01 08:25:58;;;;;;;8.23;4.60;;;19.30;99.90;;;;;;5034503;28;20182;-71
2023/08/01 08:28:30;;;;;;;5.93;4.83;;;19.00;99.90;;;;;;5035359;28;20687;-71
2023/08/01 08:30:56;;;;;;;5.67;5.17;;;19.10;99.90;;;;;;5035715;28;20203;-71
2023/08/01 08:33:22;;;;;;;4.70;4.27;;;19.50;99.90;;;;;;5035163;28;20531;-72
2023/08/01 08:35:48;;;;;;;5.20;4.70;;;20.00;99.90;;;;;;5034199;28;20186;-71
2023/08/01 08:38:14;;;;;;;7.83;4.77;;;20.30;99.90;;;;;;5067277;28;20698;-71
2023/08/01 08:40:43;;;;;;;5.70;4.23;;;20.40;99.90;;;;;;5035026;28;20171;-71
2023/08/01 08:43:09;;;;;;;5.03;4.13;;;20.50;99.90;;;;;;5034876;28;20211;-70
2023/08/01 08:45:40;;;;;;;8.87;4.90;;;20.50;99.90;;;;;;5033979;28;20195;-70
2023/08/01 08:48:12;;;;;;;9.53;4.83;;;20.60;99.90;;;;;;5033901;28;20580;-69
2023/08/01 08:50:38;;;;;;;7.43;4.30;;;20.50;99.90;;;;;;5035090;28;20564;-70
2023/08/01 08:53:11;;;;;;;5.57;4.10;;;20.30;99.90;;;;;;5034916;28;20211;-71
2023/08/01 08:55:37;;;;;;;8.33;4.40;;;20.00;99.90;;;;;;5034966;28;20174;-71
2023/08/01 08:58:04;;;;;;;5.00;4.17;;;19.90;99.90;;;;;;5035258;28;20656;-71
2023/08/01 09:00:30;;;;;;;8.10;3.77;;;20.30;99.90;;;;;;5035173;28;20652;-71
2023/08/01 09:02:56;;;;;;;5.30;4.00;;;20.60;99.90;;;;;;5034511;28;20219;-71
2023/08/01 09:05:27;;;;;;;5.75;3.72;;;21.10;99.90;;;;;;5035138;28;20171;-70
2023/08/01 09:07:56;;;;;;;4.70;3.53;;;21.40;99.90;;;;;;5034835;28;20182;-70
2023/08/01 09:10:22;;;;;;;5.90;4.10;;;21.30;99.90;;;;;;5034579;28;20699;-70
2023/08/01 09:12:48;;;;;;;5.53;4.70;;;20.80;99.90;;;;;;5034150;28;20199;-71
2023/08/01 09:15:14;;;;;;;7.63;4.10;;;20.40;99.90;;;;;;5067020;28;20573;-70
2023/08/01 09:17:50;;;;;;;4.90;3.70;;;20.20;99.90;;;;;;5034693;28;20167;-70
2023/08/01 09:20:16;;;;;;;4.27;3.80;;;20.20;99.90;;;;;;5035091;28;20179;-70
2023/08/01 09:22:44;;;;;;;6.18;4.13;;;20.70;99.90;;;;;;5066042;28;20198;-71
2023/08/01 09:25:09;;;;;;;5.22;3.33;;;21.30;99.90;;;;;;5034653;28;20179;-70
2023/08/01 09:27:35;;;;;;;4.80;3.90;;;22.00;99.90;;;;;;5034117;28;20667;-71
2023/08/01 09:30:13;;;;;;;5.07;4.20;;;22.30;99.90;;;;;;5033885;28;20199;-70
2023/08/01 09:32:39;;;;;;;4.13;3.72;;;22.60;99.90;;;;;;5034599;28;20198;-70
2023/08/01 09:35:05;;;;;;;3.50;3.20;;;22.70;99.90;;;;;;5065777;28;20604;-71
2023/08/01 09:37:41;;;;;;;6.60;3.80;;;23.10;99.90;;;;;;5034318;28;20262;-70
2023/08/01 09:40:09;;;;;;;4.15;3.78;;;23.70;99.90;;;;;;5034220;28;20171;-71
2023/08/01 09:42:42;;;;;;;4.38;3.70;;;23.60;99.90;;;;;;5034138;28;20211;-70
2023/08/01 09:45:18;;;;;;;5.15;3.20;;;23.00;99.90;;;;;;5034326;28;20230;-70
2023/08/01 09:47:45;;;;;;;3.83;3.30;;;22.90;99.90;;;;;;5034022;28;20174;-70
2023/08/01 09:50:13;;;;;;;5.55;3.28;;;22.70;99.90;;;;;;5066761;28;20250;-71
2023/08/01 09:52:39;;;;;;;6.70;3.78;;;22.70;99.90;;;;;;5066410;28;20245;-70
2023/08/01 09:55:05;;;;;;;3.45;3.15;;;22.60;99.90;;;;;;5034085;28;20539;-70
2023/08/01 09:57:31;;;;;;;4.70;3.85;;;22.50;99.90;;;;;;5034011;28;20176;-70
2023/08/01 09:59:58;;;;;;;3.65;3.25;;;22.40;99.90;;;;;;5033743;28;20179;-71
2023/08/01 10:02:26;;;;;;;3.90;3.60;;;22.20;99.90;;;;;;5065347;28;20211;-70
2023/08/01 10:04:54;;;;;;;5.47;3.92;;;22.10;99.90;;;;;;5033215;28;20546;-69
2023/08/01 10:07:26;;;;;;;5.70;3.42;;;22.20;99.90;;;;;;5033869;28;20641;-69
2023/08/01 10:09:54;;;;;;;4.65;4.00;;;22.30;99.90;;;;;;5065776;28;20207;-69
2023/08/01 10:12:22;;;;;;;4.72;3.60;;;22.30;99.90;;;;;;5032148;28;20199;-70
2023/08/01 10:14:48;;;;;;;3.80;3.22;;;22.40;99.90;;;;;;5033273;28;20547;-70
2023/08/01 10:17:15;;;;;;;3.65;3.30;;;22.70;99.90;;;;;;5034157;28;20183;-70
2023/08/01 10:19:41;;;;;;;3.25;3.05;;;22.80;99.90;;;;;;5042834;28;20209;-70
2023/08/01 10:22:08;;;;;;;3.63;3.33;;;22.60;99.90;;;;;;5050097;28;20190;-69
2023/08/01 10:24:35;;;;;;;4.72;4.05;;;22.20;99.90;;;;;;5053106;28;20194;-70
2023/08/01 10:27:15;;;;;;;3.90;3.60;;;21.90;99.90;;;;;;5053188;28;20179;-69
2023/08/01 10:29:42;;;;;;;5.55;4.15;;;21.70;99.90;;;;;;5040218;28;20273;-69
2023/08/01 10:32:08;;;;;;;8.73;4.07;;;21.70;99.90;;;;;;5032846;28;20579;-69
2023/08/01 10:34:34;;;;;;;10.23;4.03;;;21.90;99.90;;;;;;5035295;28;20167;-69
2023/08/01 10:37:01;;;;;;;5.30;3.40;;;22.20;99.90;;;;;;5051695;28;20195;-69
2023/08/01 10:39:28;;;;;;;5.28;4.28;;;22.80;99.90;;;;;;5053026;28;20167;-69
2023/08/01 10:42:01;;;;;;;4.90;3.85;;;23.60;99.90;;;;;;5052653;28;20662;-70
2023/08/01 10:44:27;;;;;;;6.32;3.50;;;23.90;99.90;;;;;;5034953;28;20229;-69
2023/08/01 10:46:58;;;;;;;3.53;3.20;;;24.10;99.90;;;;;;5032594;28;20553;-69
2023/08/01 10:49:44;;;;;;;3.70;2.83;;;24.00;99.90;;;;;;5033271;28;20208;-70
2023/08/01 10:52:20;;;;;;;3.30;3.10;;;24.00;99.90;;;;;;5031594;28;20203;-71
2023/08/01 10:54:46;;;;;;;3.83;3.53;;;23.80;99.90;;;;;;5032859;28;20167;-68
2023/08/01 10:57:18;;;;;;;3.85;3.20;;;23.50;99.90;;;;;;5038392;28;20182;-69
2023/08/01 10:59:44;;;;;;;3.65;2.60;;;23.40;99.90;;;;;;5052615;28;20178;-69
2023/08/01 11:02:10;;;;;;;3.50;3.20;;;23.60;99.90;;;;;;5050612;28;20179;-70
2023/08/01 11:04:36;;;;;;;4.55;3.10;;;23.90;99.90;;;;;;5051085;28;20731;-71
2023/08/01 11:07:04;;;;;;;3.55;3.25;;;24.00;99.90;;;;;;5052290;28;20185;-69
2023/08/01 11:09:29;;;;;;;3.40;2.90;;;24.00;99.90;;;;;;5052308;28;20198;-68
2023/08/01 11:11:58;;;;;;;4.18;3.00;;;24.00;99.90;;;;;;5038995;28;20180;-69
2023/08/01 11:14:25;;;;;;;4.60;3.20;;;24.20;99.90;;;;;;5032539;28;20176;-69
2023/08/01 11:16:53;;;;;;;4.82;2.88;;;24.30;99.90;;;;;;5032248;28;20214;-70
2023/08/01 11:19:29;;;;;;;3.63;2.38;;;24.60;99.90;;;;;;5030479;28;20179;-70
2023/08/01 11:21:56;;;;;;;4.78;3.85;;;24.90;99.90;;;;;;5032030;28;20285;-69
2023/08/01 11:24:23;;;;;;;6.97;3.45;;;25.10;99.90;;;;;;5032314;28;20163;-69
2023/08/01 11:26:50;;;;;;;4.43;3.40;;;24.90;99.90;;;;;;5050426;28;20335;-69
2023/08/01 11:29:17;;;;;;;4.50;2.90;;;24.80;99.90;;;;;;5051592;28;20203;-69
2023/08/01 11:31:57;;;;;;;6.53;4.03;;;24.50;99.90;;;;;;5051831;28;20167;-70
2023/08/01 11:34:23;;;;;;;10.25;3.50;;;24.40;99.90;;;;;;5052064;28;20666;-69
2023/08/01 11:36:50;;;;;;;6.75;3.63;;;24.40;99.90;;;;;;5051878;28;20234;-69
2023/08/01 11:39:16;;;;;;;6.88;3.90;;;24.60;99.90;;;;;;5044983;28;20176;-68
2023/08/01 11:41:43;;;;;;;6.13;3.22;;;24.20;99.90;;;;;;5031690;28;20180;-68
2023/08/01 11:44:11;;;;;;;3.78;3.15;;;23.70;99.90;;;;;;5031950;28;20198;-70
2023/08/01 11:46:37;;;;;;;3.17;2.88;;;23.50;99.90;;;;;;5032049;28;20167;-69
2023/08/01 11:49:06;;;;;;;2.92;2.70;;;24.00;99.90;;;;;;5030431;28;20292;-69
2023/08/01 11:51:40;;;;;;;4.95;3.50;;;24.40;99.90;;;;;;5031551;28;20179;-69
2023/08/01 11:54:07;;;;;;;3.72;3.08;;;24.50;99.90;;;;;;5032151;28;20195;-69
2023/08/01 11:56:33;;;;;;;3.20;2.78;;;24.00;99.90;;;;;;5031715;28;20217;-69
2023/08/01 11:58:59;;;;;;;3.83;3.08;;;23.90;99.90;;;;;;5031036;28;20666;-69
2023/08/01 12:01:25;;;;;;;3.97;2.72;;;23.90;99.90;;;;;;5031680;28;20253;-69
2023/08/01 12:03:53;;;;;;;4.57;3.05;;;23.70;99.90;;;;;;5031459;28;20247;-69
2023/08/01 12:06:24;;;;;;;3.70;2.80;;;23.50;99.90;;;;;;5031824;28;20164;-69
2023/08/01 12:08:51;;;;;;;3.15;2.85;;;23.20;99.90;;;;;;5050485;28;20969;-69
2023/08/01 12:11:21;;;;;;;3.40;3.10;;;22.90;99.90;;;;;;5051477;28;20577;-70
2023/08/01 12:13:48;;;;;;;3.47;3.13;;;22.90;99.90;;;;;;5045464;28;20239;-70
2023/08/01 12:16:17;;;;;;;4.32;2.78;;;23.10;99.90;;;;;;5040733;28;20179;-69
2023/08/01 12:18:44;;;;;;;3.55;2.50;;;23.40;99.90;;;;;;5031130;28;20213;-70
2023/08/01 12:21:10;;;;;;;3.28;2.90;;;23.40;99.90;;;;;;5030000;28;20652;-70
2023/08/01 12:23:36;;;;;;;3.20;2.90;;;23.00;99.90;;;;;;5030951;28;20195;-68
2023/08/01 12:26:01;;;;;;;4.32;3.00;;;22.60;99.90;;;;;;5031348;28;20183;-70
2023/08/01 12:28:27;;;;;;;5.13;4.00;;;22.10;99.90;;;;;;5034621;28;20636;-69
2023/08/01 12:30:53;;;;;;;5.60;3.80;;;21.50;99.90;;;;;;5050929;28;20262;-69
2023/08/01 12:33:18;;;;;;;8.43;4.70;;;21.00;99.90;;;;;;5044230;28;20191;-69
2023/08/01 12:35:44;;;;;;;4.77;3.63;;;20.40;99.90;;;;;;5031071;28;20254;-69
2023/08/01 12:38:10;;;;;;;6.63;4.37;;;20.20;99.90;;;;;;5031334;28;20178;-69